sensor_id;sensor_type;location;lat;lon;timestamp;P1;durP1;ratioP1;P2;durP2;ratioP2
10387;SDS011;5240;51.128;4.566;2023-04-03T00:00:51;5.93;;;4.32;;
10387;SDS011;5240;51.128;4.566;2023-04-03T00:03:18;6.20;;;4.55;;
10387;SDS011;5240;51.128;4.566;2023-04-03T00:05:47;6.53;;;4.50;;
10387;SDS011;5240;51.128;4.566;2023-04-03T00:08:14;7.07;;;4.53;;
10387;SDS011;5240;51.128;4.566;2023-04-03T00:10:42;6.25;;;4.60;;
10387;SDS011;5240;51.128;4.566;2023-04-03T00:13:09;10.50;;;5.03;;
10387;SDS011;5240;51.128;4.566;2023-04-03T00:15:37;10.27;;;4.22;;
10387;SDS011;5240;51.128;4.566;2023-04-03T00:18:05;6.13;;;4.65;;
10387;SDS011;5240;51.128;4.566;2023-04-03T00:20:32;7.53;;;4.85;;
10387;SDS011;5240;51.128;4.566;2023-04-03T00:23:01;5.85;;;4.50;;
10387;SDS011;5240;51.128;4.566;2023-04-03T00:25:28;5.95;;;4.68;;
10387;SDS011;5240;51.128;4.566;2023-04-03T00:27:55;6.45;;;4.63;;
10387;SDS011;5240;51.128;4.566;2023-04-03T00:30:23;5.63;;;4.45;;
10387;SDS011;5240;51.128;4.566;2023-04-03T00:32:50;8.05;;;4.93;;
10387;SDS011;5240;51.128;4.566;2023-04-03T00:35:18;12.40;;;4.60;;
10387;SDS011;5240;51.128;4.566;2023-04-03T00:37:46;5.43;;;4.72;;
10387;SDS011;5240;51.128;4.566;2023-04-03T00:40:15;6.07;;;4.90;;
10387;SDS011;5240;51.128;4.566;2023-04-03T00:42:42;8.73;;;4.70;;
10387;SDS011;5240;51.128;4.566;2023-04-03T00:45:22;9.98;;;5.47;;
10387;SDS011;5240;51.128;4.566;2023-04-03T00:47:52;8.38;;;4.68;;
10387;SDS011;5240;51.128;4.566;2023-04-03T00:50:20;6.13;;;4.35;;
10387;SDS011;5240;51.128;4.566;2023-04-03T00:52:50;8.73;;;4.90;;
10387;SDS011;5240;51.128;4.566;2023-04-03T00:55:19;8.55;;;5.30;;
10387;SDS011;5240;51.128;4.566;2023-04-03T00:57:46;5.45;;;4.78;;
10387;SDS011;5240;51.128;4.566;2023-04-03T01:00:15;5.68;;;4.78;;
10387;SDS011;5240;51.128;4.566;2023-04-03T01:02:45;7.15;;;5.28;;
10387;SDS011;5240;51.128;4.566;2023-04-03T01:05:12;7.53;;;5.38;;
10387;SDS011;5240;51.128;4.566;2023-04-03T01:07:41;6.88;;;5.22;;
10387;SDS011;5240;51.128;4.566;2023-04-03T01:10:09;6.40;;;4.90;;
10387;SDS011;5240;51.128;4.566;2023-04-03T01:12:40;7.68;;;5.18;;
10387;SDS011;5240;51.128;4.566;2023-04-03T01:15:09;8.77;;;5.60;;
10387;SDS011;5240;51.128;4.566;2023-04-03T01:17:39;5.85;;;4.63;;
10387;SDS011;5240;51.128;4.566;2023-04-03T01:23:12;6.40;;;4.82;;
10387;SDS011;5240;51.128;4.566;2023-04-03T01:25:53;6.85;;;5.00;;
10387;SDS011;5240;51.128;4.566;2023-04-03T01:28:25;5.85;;;4.88;;
10387;SDS011;5240;51.128;4.566;2023-04-03T01:30:59;9.38;;;5.40;;
10387;SDS011;5240;51.128;4.566;2023-04-03T01:33:33;9.52;;;5.40;;
10387;SDS011;5240;51.128;4.566;2023-04-03T01:36:00;6.35;;;5.00;;
10387;SDS011;5240;51.128;4.566;2023-04-03T01:38:28;8.85;;;5.43;;
10387;SDS011;5240;51.128;4.566;2023-04-03T01:40:55;7.72;;;5.75;;
10387;SDS011;5240;51.128;4.566;2023-04-03T01:43:22;9.20;;;6.05;;
10387;SDS011;5240;51.128;4.566;2023-04-03T01:45:49;7.78;;;6.25;;
10387;SDS011;5240;51.128;4.566;2023-04-03T01:48:17;8.00;;;5.85;;
10387;SDS011;5240;51.128;4.566;2023-04-03T01:50:46;7.82;;;6.07;;
10387;SDS011;5240;51.128;4.566;2023-04-03T01:53:13;7.32;;;5.95;;
10387;SDS011;5240;51.128;4.566;2023-04-03T01:55:40;8.00;;;5.50;;
10387;SDS011;5240;51.128;4.566;2023-04-03T01:58:07;7.10;;;5.85;;
10387;SDS011;5240;51.128;4.566;2023-04-03T02:00:34;9.02;;;6.15;;
10387;SDS011;5240;51.128;4.566;2023-04-03T02:03:02;8.02;;;5.75;;
10387;SDS011;5240;51.128;4.566;2023-04-03T02:05:29;11.25;;;6.20;;
10387;SDS011;5240;51.128;4.566;2023-04-03T02:07:57;10.07;;;6.45;;
10387;SDS011;5240;51.128;4.566;2023-04-03T02:10:25;9.85;;;5.90;;
10387;SDS011;5240;51.128;4.566;2023-04-03T02:12:52;9.45;;;6.28;;
10387;SDS011;5240;51.128;4.566;2023-04-03T02:15:19;9.27;;;5.85;;
10387;SDS011;5240;51.128;4.566;2023-04-03T02:17:46;9.95;;;6.45;;
10387;SDS011;5240;51.128;4.566;2023-04-03T02:20:13;6.90;;;6.05;;
10387;SDS011;5240;51.128;4.566;2023-04-03T02:22:40;8.82;;;6.35;;
10387;SDS011;5240;51.128;4.566;2023-04-03T02:25:09;9.32;;;6.05;;
10387;SDS011;5240;51.128;4.566;2023-04-03T02:27:36;9.48;;;6.22;;
10387;SDS011;5240;51.128;4.566;2023-04-03T02:30:04;9.13;;;6.45;;
10387;SDS011;5240;51.128;4.566;2023-04-03T02:32:34;9.45;;;5.85;;
10387;SDS011;5240;51.128;4.566;2023-04-03T02:35:01;7.32;;;6.05;;
10387;SDS011;5240;51.128;4.566;2023-04-03T02:37:28;8.60;;;5.85;;
10387;SDS011;5240;51.128;4.566;2023-04-03T02:39:56;11.00;;;5.90;;
10387;SDS011;5240;51.128;4.566;2023-04-03T02:42:24;7.35;;;5.50;;
10387;SDS011;5240;51.128;4.566;2023-04-03T02:44:51;9.75;;;6.50;;
10387;SDS011;5240;51.128;4.566;2023-04-03T02:47:18;8.10;;;6.50;;
10387;SDS011;5240;51.128;4.566;2023-04-03T02:49:45;6.90;;;6.18;;
10387;SDS011;5240;51.128;4.566;2023-04-03T02:52:12;8.85;;;5.85;;
10387;SDS011;5240;51.128;4.566;2023-04-03T02:54:40;8.25;;;6.47;;
10387;SDS011;5240;51.128;4.566;2023-04-03T02:57:07;6.95;;;6.10;;
10387;SDS011;5240;51.128;4.566;2023-04-03T02:59:36;7.10;;;6.15;;
10387;SDS011;5240;51.128;4.566;2023-04-03T03:02:05;8.60;;;6.32;;
10387;SDS011;5240;51.128;4.566;2023-04-03T03:04:32;7.68;;;5.93;;
10387;SDS011;5240;51.128;4.566;2023-04-03T03:06:59;8.02;;;5.95;;
10387;SDS011;5240;51.128;4.566;2023-04-03T03:09:27;8.80;;;6.50;;
10387;SDS011;5240;51.128;4.566;2023-04-03T03:11:54;10.02;;;6.63;;
10387;SDS011;5240;51.128;4.566;2023-04-03T03:14:21;8.77;;;6.68;;
10387;SDS011;5240;51.128;4.566;2023-04-03T03:16:50;13.43;;;6.40;;
10387;SDS011;5240;51.128;4.566;2023-04-03T03:19:16;11.73;;;7.18;;
10387;SDS011;5240;51.128;4.566;2023-04-03T03:21:43;7.50;;;6.80;;
10387;SDS011;5240;51.128;4.566;2023-04-03T03:24:10;10.80;;;6.63;;
10387;SDS011;5240;51.128;4.566;2023-04-03T03:26:38;10.50;;;6.80;;
10387;SDS011;5240;51.128;4.566;2023-04-03T03:29:05;7.65;;;6.63;;
10387;SDS011;5240;51.128;4.566;2023-04-03T03:31:32;7.88;;;6.60;;
10387;SDS011;5240;51.128;4.566;2023-04-03T03:34:00;8.55;;;6.60;;
10387;SDS011;5240;51.128;4.566;2023-04-03T03:36:27;14.13;;;6.93;;
10387;SDS011;5240;51.128;4.566;2023-04-03T03:38:54;8.45;;;6.35;;
10387;SDS011;5240;51.128;4.566;2023-04-03T03:41:21;7.80;;;6.93;;
10387;SDS011;5240;51.128;4.566;2023-04-03T03:43:48;8.18;;;7.07;;
10387;SDS011;5240;51.128;4.566;2023-04-03T03:46:15;8.73;;;7.75;;
10387;SDS011;5240;51.128;4.566;2023-04-03T03:48:42;8.60;;;7.30;;
10387;SDS011;5240;51.128;4.566;2023-04-03T03:51:11;12.55;;;7.18;;
10387;SDS011;5240;51.128;4.566;2023-04-03T03:53:38;8.52;;;7.65;;
10387;SDS011;5240;51.128;4.566;2023-04-03T03:56:05;8.75;;;7.82;;
10387;SDS011;5240;51.128;4.566;2023-04-03T03:58:32;12.23;;;7.55;;
10387;SDS011;5240;51.128;4.566;2023-04-03T04:01:00;9.90;;;7.68;;
10387;SDS011;5240;51.128;4.566;2023-04-03T04:03:28;8.85;;;7.15;;
10387;SDS011;5240;51.128;4.566;2023-04-03T04:05:55;8.90;;;7.10;;
10387;SDS011;5240;51.128;4.566;2023-04-03T04:08:23;9.57;;;7.57;;
10387;SDS011;5240;51.128;4.566;2023-04-03T04:10:50;8.65;;;7.80;;
10387;SDS011;5240;51.128;4.566;2023-04-03T04:13:17;11.55;;;8.02;;
10387;SDS011;5240;51.128;4.566;2023-04-03T04:15:44;8.88;;;7.97;;
10387;SDS011;5240;51.128;4.566;2023-04-03T04:18:11;9.70;;;7.97;;
10387;SDS011;5240;51.128;4.566;2023-04-03T04:20:39;11.55;;;8.55;;
10387;SDS011;5240;51.128;4.566;2023-04-03T04:23:06;10.65;;;8.10;;
10387;SDS011;5240;51.128;4.566;2023-04-03T04:25:34;9.05;;;8.10;;
10387;SDS011;5240;51.128;4.566;2023-04-03T04:28:01;10.60;;;8.90;;
10387;SDS011;5240;51.128;4.566;2023-04-03T04:30:28;11.45;;;8.75;;
10387;SDS011;5240;51.128;4.566;2023-04-03T04:32:55;9.95;;;8.43;;
10387;SDS011;5240;51.128;4.566;2023-04-03T04:35:22;9.88;;;8.63;;
10387;SDS011;5240;51.128;4.566;2023-04-03T04:37:49;9.85;;;8.80;;
10387;SDS011;5240;51.128;4.566;2023-04-03T04:40:16;12.15;;;9.45;;
10387;SDS011;5240;51.128;4.566;2023-04-03T04:42:45;10.13;;;8.93;;
10387;SDS011;5240;51.128;4.566;2023-04-03T04:45:12;12.50;;;9.07;;
10387;SDS011;5240;51.128;4.566;2023-04-03T04:47:40;12.35;;;8.95;;
10387;SDS011;5240;51.128;4.566;2023-04-03T04:50:07;10.75;;;8.48;;
10387;SDS011;5240;51.128;4.566;2023-04-03T04:52:35;12.63;;;9.32;;
10387;SDS011;5240;51.128;4.566;2023-04-03T04:55:02;10.55;;;8.98;;
10387;SDS011;5240;51.128;4.566;2023-04-03T04:57:30;12.80;;;9.52;;
10387;SDS011;5240;51.128;4.566;2023-04-03T04:59:58;10.98;;;9.50;;
10387;SDS011;5240;51.128;4.566;2023-04-03T05:02:25;12.82;;;9.50;;
10387;SDS011;5240;51.128;4.566;2023-04-03T05:04:52;11.15;;;9.13;;
10387;SDS011;5240;51.128;4.566;2023-04-03T05:07:19;13.63;;;9.48;;
10387;SDS011;5240;51.128;4.566;2023-04-03T05:09:46;12.73;;;9.60;;
10387;SDS011;5240;51.128;4.566;2023-04-03T05:12:13;12.77;;;9.93;;
10387;SDS011;5240;51.128;4.566;2023-04-03T05:14:40;14.25;;;9.93;;
10387;SDS011;5240;51.128;4.566;2023-04-03T05:17:09;11.65;;;10.43;;
10387;SDS011;5240;51.128;4.566;2023-04-03T05:19:36;13.57;;;10.95;;
10387;SDS011;5240;51.128;4.566;2023-04-03T05:22:03;16.92;;;10.57;;
10387;SDS011;5240;51.128;4.566;2023-04-03T05:24:30;14.65;;;9.95;;
10387;SDS011;5240;51.128;4.566;2023-04-03T05:26:57;13.10;;;10.23;;
10387;SDS011;5240;51.128;4.566;2023-04-03T05:29:24;14.93;;;11.15;;
10387;SDS011;5240;51.128;4.566;2023-04-03T05:31:51;12.25;;;10.07;;
10387;SDS011;5240;51.128;4.566;2023-04-03T05:34:19;10.98;;;9.82;;
10387;SDS011;5240;51.128;4.566;2023-04-03T05:36:46;10.93;;;9.10;;
10387;SDS011;5240;51.128;4.566;2023-04-03T05:39:13;10.82;;;9.43;;
10387;SDS011;5240;51.128;4.566;2023-04-03T05:41:40;11.65;;;10.15;;
10387;SDS011;5240;51.128;4.566;2023-04-03T05:44:07;12.60;;;10.13;;
10387;SDS011;5240;51.128;4.566;2023-04-03T05:46:34;12.93;;;10.65;;
10387;SDS011;5240;51.128;4.566;2023-04-03T05:49:01;12.15;;;10.20;;
10387;SDS011;5240;51.128;4.566;2023-04-03T05:51:30;11.32;;;9.75;;
10387;SDS011;5240;51.128;4.566;2023-04-03T05:54:00;14.15;;;9.73;;
10387;SDS011;5240;51.128;4.566;2023-04-03T05:56:32;11.80;;;9.43;;
10387;SDS011;5240;51.128;4.566;2023-04-03T05:58:59;13.15;;;9.30;;
10387;SDS011;5240;51.128;4.566;2023-04-03T06:01:26;10.88;;;9.77;;
10387;SDS011;5240;51.128;4.566;2023-04-03T06:03:53;17.55;;;9.52;;
10387;SDS011;5240;51.128;4.566;2023-04-03T06:06:21;14.02;;;9.52;;
10387;SDS011;5240;51.128;4.566;2023-04-03T06:08:49;11.02;;;9.25;;
10387;SDS011;5240;51.128;4.566;2023-04-03T06:11:16;15.43;;;8.85;;
10387;SDS011;5240;51.128;4.566;2023-04-03T06:13:43;10.82;;;7.88;;
10387;SDS011;5240;51.128;4.566;2023-04-03T06:16:12;14.38;;;8.18;;
10387;SDS011;5240;51.128;4.566;2023-04-03T06:18:40;9.40;;;8.20;;
10387;SDS011;5240;51.128;4.566;2023-04-03T06:21:07;13.60;;;7.50;;
10387;SDS011;5240;51.128;4.566;2023-04-03T06:23:34;14.18;;;8.18;;
10387;SDS011;5240;51.128;4.566;2023-04-03T06:26:03;11.00;;;8.10;;
10387;SDS011;5240;51.128;4.566;2023-04-03T06:28:30;11.95;;;7.82;;
10387;SDS011;5240;51.128;4.566;2023-04-03T06:30:57;10.25;;;7.57;;
10387;SDS011;5240;51.128;4.566;2023-04-03T06:33:24;8.70;;;7.03;;
10387;SDS011;5240;51.128;4.566;2023-04-03T06:35:55;11.45;;;7.30;;
10387;SDS011;5240;51.128;4.566;2023-04-03T06:38:23;7.88;;;6.90;;
10387;SDS011;5240;51.128;4.566;2023-04-03T06:40:50;10.02;;;6.63;;
10387;SDS011;5240;51.128;4.566;2023-04-03T06:43:19;14.25;;;7.00;;
10387;SDS011;5240;51.128;4.566;2023-04-03T06:45:46;11.57;;;6.32;;
10387;SDS011;5240;51.128;4.566;2023-04-03T06:48:14;8.23;;;5.85;;
10387;SDS011;5240;51.128;4.566;2023-04-03T06:50:41;9.93;;;6.32;;
10387;SDS011;5240;51.128;4.566;2023-04-03T06:53:08;8.68;;;5.75;;
10387;SDS011;5240;51.128;4.566;2023-04-03T06:55:35;10.73;;;6.40;;
10387;SDS011;5240;51.128;4.566;2023-04-03T06:58:03;11.07;;;5.93;;
10387;SDS011;5240;51.128;4.566;2023-04-03T07:00:31;9.75;;;5.95;;
10387;SDS011;5240;51.128;4.566;2023-04-03T07:02:59;12.77;;;5.70;;
10387;SDS011;5240;51.128;4.566;2023-04-03T07:05:26;9.63;;;5.43;;
10387;SDS011;5240;51.128;4.566;2023-04-03T07:07:53;8.60;;;5.30;;
10387;SDS011;5240;51.128;4.566;2023-04-03T07:10:20;9.30;;;5.30;;
10387;SDS011;5240;51.128;4.566;2023-04-03T07:12:47;6.60;;;4.68;;
10387;SDS011;5240;51.128;4.566;2023-04-03T07:15:15;9.35;;;5.63;;
10387;SDS011;5240;51.128;4.566;2023-04-03T07:17:43;7.28;;;4.93;;
10387;SDS011;5240;51.128;4.566;2023-04-03T07:20:11;7.68;;;4.60;;
10387;SDS011;5240;51.128;4.566;2023-04-03T07:22:38;13.32;;;5.10;;
10387;SDS011;5240;51.128;4.566;2023-04-03T07:25:06;11.38;;;4.95;;
10387;SDS011;5240;51.128;4.566;2023-04-03T07:27:33;7.47;;;4.47;;
10387;SDS011;5240;51.128;4.566;2023-04-03T07:30:00;8.70;;;4.72;;
10387;SDS011;5240;51.128;4.566;2023-04-03T07:32:28;7.68;;;4.63;;
10387;SDS011;5240;51.128;4.566;2023-04-03T07:34:56;9.73;;;4.50;;
10387;SDS011;5240;51.128;4.566;2023-04-03T07:37:23;9.07;;;4.63;;
10387;SDS011;5240;51.128;4.566;2023-04-03T07:39:51;6.63;;;4.22;;
10387;SDS011;5240;51.128;4.566;2023-04-03T07:42:20;7.20;;;4.30;;
10387;SDS011;5240;51.128;4.566;2023-04-03T07:44:47;7.30;;;4.10;;
10387;SDS011;5240;51.128;4.566;2023-04-03T07:47:14;6.15;;;4.13;;
10387;SDS011;5240;51.128;4.566;2023-04-03T07:49:42;7.45;;;3.70;;
10387;SDS011;5240;51.128;4.566;2023-04-03T07:52:10;7.00;;;3.97;;
10387;SDS011;5240;51.128;4.566;2023-04-03T07:54:39;7.80;;;3.65;;
10387;SDS011;5240;51.128;4.566;2023-04-03T07:57:06;8.82;;;3.08;;
10387;SDS011;5240;51.128;4.566;2023-04-03T07:59:34;5.45;;;2.92;;
10387;SDS011;5240;51.128;4.566;2023-04-03T08:02:01;6.43;;;2.97;;
10387;SDS011;5240;51.128;4.566;2023-04-03T08:04:30;5.60;;;2.65;;
10387;SDS011;5240;51.128;4.566;2023-04-03T08:06:57;6.20;;;2.95;;
10387;SDS011;5240;51.128;4.566;2023-04-03T08:09:25;6.20;;;3.45;;
10387;SDS011;5240;51.128;4.566;2023-04-03T08:11:52;7.38;;;3.70;;
10387;SDS011;5240;51.128;4.566;2023-04-03T08:14:19;7.07;;;3.00;;
10387;SDS011;5240;51.128;4.566;2023-04-03T08:16:47;6.20;;;2.90;;
10387;SDS011;5240;51.128;4.566;2023-04-03T08:19:15;5.38;;;2.88;;
10387;SDS011;5240;51.128;4.566;2023-04-03T08:21:43;5.03;;;2.95;;
10387;SDS011;5240;51.128;4.566;2023-04-03T08:24:10;5.20;;;2.78;;
10387;SDS011;5240;51.128;4.566;2023-04-03T08:26:39;6.03;;;2.92;;
10387;SDS011;5240;51.128;4.566;2023-04-03T08:29:06;7.05;;;2.85;;
10387;SDS011;5240;51.128;4.566;2023-04-03T08:31:33;5.53;;;2.83;;
10387;SDS011;5240;51.128;4.566;2023-04-03T08:34:00;6.20;;;2.38;;
10387;SDS011;5240;51.128;4.566;2023-04-03T08:36:28;6.25;;;2.60;;
10387;SDS011;5240;51.128;4.566;2023-04-03T08:38:56;5.55;;;2.80;;
10387;SDS011;5240;51.128;4.566;2023-04-03T08:41:29;6.35;;;2.58;;
10387;SDS011;5240;51.128;4.566;2023-04-03T08:44:07;6.72;;;2.80;;
10387;SDS011;5240;51.128;4.566;2023-04-03T08:46:48;4.38;;;2.50;;
10387;SDS011;5240;51.128;4.566;2023-04-03T08:49:31;6.13;;;2.50;;
10387;SDS011;5240;51.128;4.566;2023-04-03T08:52:01;4.97;;;2.35;;
10387;SDS011;5240;51.128;4.566;2023-04-03T08:54:32;4.63;;;2.42;;
10387;SDS011;5240;51.128;4.566;2023-04-03T08:57:02;6.18;;;2.78;;
10387;SDS011;5240;51.128;4.566;2023-04-03T08:59:34;4.60;;;2.30;;
10387;SDS011;5240;51.128;4.566;2023-04-03T09:02:04;4.75;;;2.20;;
10387;SDS011;5240;51.128;4.566;2023-04-03T09:04:47;3.72;;;2.20;;
10387;SDS011;5240;51.128;4.566;2023-04-03T09:07:16;6.72;;;2.33;;
10387;SDS011;5240;51.128;4.566;2023-04-03T09:09:49;3.70;;;1.83;;
10387;SDS011;5240;51.128;4.566;2023-04-03T09:12:18;6.38;;;2.38;;
10387;SDS011;5240;51.128;4.566;2023-04-03T09:14:55;7.53;;;2.20;;
10387;SDS011;5240;51.128;4.566;2023-04-03T09:17:33;7.32;;;2.40;;
10387;SDS011;5240;51.128;4.566;2023-04-03T09:20:10;4.93;;;2.28;;
10387;SDS011;5240;51.128;4.566;2023-04-03T09:22:46;7.85;;;2.42;;
10387;SDS011;5240;51.128;4.566;2023-04-03T09:25:14;8.07;;;2.17;;
10387;SDS011;5240;51.128;4.566;2023-04-03T09:27:44;9.10;;;2.72;;
10387;SDS011;5240;51.128;4.566;2023-04-03T09:30:14;2.90;;;2.00;;
10387;SDS011;5240;51.128;4.566;2023-04-03T09:32:44;4.45;;;2.30;;
10387;SDS011;5240;51.128;4.566;2023-04-03T09:35:23;3.58;;;2.05;;
10387;SDS011;5240;51.128;4.566;2023-04-03T09:37:52;4.07;;;2.30;;
10387;SDS011;5240;51.128;4.566;2023-04-03T09:48:51;3.17;;;2.10;;
10387;SDS011;5240;51.128;4.566;2023-04-03T09:51:24;3.33;;;2.40;;
10387;SDS011;5240;51.128;4.566;2023-04-03T09:53:52;3.80;;;2.10;;
10387;SDS011;5240;51.128;4.566;2023-04-03T09:56:21;3.30;;;2.17;;
10387;SDS011;5240;51.128;4.566;2023-04-03T09:58:51;3.92;;;2.30;;
10387;SDS011;5240;51.128;4.566;2023-04-03T10:01:35;4.50;;;2.10;;
10387;SDS011;5240;51.128;4.566;2023-04-03T10:04:06;3.88;;;2.10;;
10387;SDS011;5240;51.128;4.566;2023-04-03T10:06:35;3.05;;;2.13;;
10387;SDS011;5240;51.128;4.566;2023-04-03T10:09:12;3.97;;;2.15;;
10387;SDS011;5240;51.128;4.566;2023-04-03T10:11:56;3.63;;;2.00;;
10387;SDS011;5240;51.128;4.566;2023-04-03T10:14:29;3.30;;;2.05;;
10387;SDS011;5240;51.128;4.566;2023-04-03T10:17:01;4.22;;;2.17;;
10387;SDS011;5240;51.128;4.566;2023-04-03T10:19:40;1.90;;;1.52;;
10387;SDS011;5240;51.128;4.566;2023-04-03T10:22:13;3.97;;;1.85;;
10387;SDS011;5240;51.128;4.566;2023-04-03T10:24:48;2.22;;;1.63;;
10387;SDS011;5240;51.128;4.566;2023-04-03T10:27:29;3.15;;;2.35;;
10387;SDS011;5240;51.128;4.566;2023-04-03T10:30:06;2.00;;;1.52;;
10387;SDS011;5240;51.128;4.566;2023-04-03T10:32:52;3.88;;;1.90;;
10387;SDS011;5240;51.128;4.566;2023-04-03T10:35:31;3.17;;;2.38;;
10387;SDS011;5240;51.128;4.566;2023-04-03T10:38:13;6.40;;;2.22;;
10387;SDS011;5240;51.128;4.566;2023-04-03T10:40:47;3.15;;;2.22;;
10387;SDS011;5240;51.128;4.566;2023-04-03T10:43:23;4.22;;;2.30;;
10387;SDS011;5240;51.128;4.566;2023-04-03T10:46:00;4.10;;;2.22;;
10387;SDS011;5240;51.128;4.566;2023-04-03T10:51:32;5.28;;;2.00;;
10387;SDS011;5240;51.128;4.566;2023-04-03T10:54:08;2.67;;;1.50;;
10387;SDS011;5240;51.128;4.566;2023-04-03T10:56:39;3.40;;;2.00;;
10387;SDS011;5240;51.128;4.566;2023-04-03T10:59:16;4.68;;;2.38;;
10387;SDS011;5240;51.128;4.566;2023-04-03T11:01:50;2.42;;;1.63;;
10387;SDS011;5240;51.128;4.566;2023-04-03T11:04:22;1.90;;;1.60;;
10387;SDS011;5240;51.128;4.566;2023-04-03T11:06:53;2.17;;;1.55;;
10387;SDS011;5240;51.128;4.566;2023-04-03T11:09:27;3.67;;;1.83;;
10387;SDS011;5240;51.128;4.566;2023-04-03T11:12:00;3.67;;;1.83;;
10387;SDS011;5240;51.128;4.566;2023-04-03T11:14:31;1.77;;;1.55;;
10387;SDS011;5240;51.128;4.566;2023-04-03T11:17:03;2.63;;;1.67;;
10387;SDS011;5240;51.128;4.566;2023-04-03T11:19:41;3.55;;;1.60;;
10387;SDS011;5240;51.128;4.566;2023-04-03T11:22:16;3.40;;;1.83;;
10387;SDS011;5240;51.128;4.566;2023-04-03T11:24:52;1.73;;;1.50;;
10387;SDS011;5240;51.128;4.566;2023-04-03T11:27:25;1.92;;;1.45;;
10387;SDS011;5240;51.128;4.566;2023-04-03T11:29:55;4.38;;;1.55;;
10387;SDS011;5240;51.128;4.566;2023-04-03T11:32:38;4.53;;;1.40;;
10387;SDS011;5240;51.128;4.566;2023-04-03T11:35:27;3.97;;;1.70;;
10387;SDS011;5240;51.128;4.566;2023-04-03T11:37:54;2.70;;;1.60;;
10387;SDS011;5240;51.128;4.566;2023-04-03T11:40:24;5.60;;;1.60;;
10387;SDS011;5240;51.128;4.566;2023-04-03T11:42:55;2.20;;;1.40;;
10387;SDS011;5240;51.128;4.566;2023-04-03T11:45:33;3.28;;;1.60;;
10387;SDS011;5240;51.128;4.566;2023-04-03T11:48:03;3.28;;;1.40;;
10387;SDS011;5240;51.128;4.566;2023-04-03T11:50:39;2.70;;;1.55;;
10387;SDS011;5240;51.128;4.566;2023-04-03T11:53:27;3.88;;;1.67;;
10387;SDS011;5240;51.128;4.566;2023-04-03T11:56:03;1.45;;;1.20;;
10387;SDS011;5240;51.128;4.566;2023-04-03T11:58:50;3.63;;;1.42;;
10387;SDS011;5240;51.128;4.566;2023-04-03T12:01:48;2.70;;;1.30;;
10387;SDS011;5240;51.128;4.566;2023-04-03T12:04:17;3.90;;;1.73;;
10387;SDS011;5240;51.128;4.566;2023-04-03T12:07:00;2.08;;;1.50;;
10387;SDS011;5240;51.128;4.566;2023-04-03T12:12:56;2.85;;;1.50;;
10387;SDS011;5240;51.128;4.566;2023-04-03T12:18:31;1.90;;;1.45;;
10387;SDS011;5240;51.128;4.566;2023-04-03T12:21:24;4.47;;;1.88;;
10387;SDS011;5240;51.128;4.566;2023-04-03T12:24:33;2.00;;;1.80;;
10387;SDS011;5240;51.128;4.566;2023-04-03T12:27:02;2.65;;;1.40;;
10387;SDS011;5240;51.128;4.566;2023-04-03T12:29:36;2.60;;;1.70;;
10387;SDS011;5240;51.128;4.566;2023-04-03T12:32:13;4.20;;;1.70;;
10387;SDS011;5240;51.128;4.566;2023-04-03T12:34:54;1.95;;;1.60;;
10387;SDS011;5240;51.128;4.566;2023-04-03T12:37:39;2.80;;;1.80;;
10387;SDS011;5240;51.128;4.566;2023-04-03T12:40:22;4.28;;;1.80;;
10387;SDS011;5240;51.128;4.566;2023-04-03T12:43:09;2.38;;;1.70;;
10387;SDS011;5240;51.128;4.566;2023-04-03T12:45:58;2.58;;;1.65;;
10387;SDS011;5240;51.128;4.566;2023-04-03T12:48:29;5.30;;;1.63;;
10387;SDS011;5240;51.128;4.566;2023-04-03T12:50:57;2.58;;;1.38;;
10387;SDS011;5240;51.128;4.566;2023-04-03T12:53:26;3.10;;;1.70;;
10387;SDS011;5240;51.128;4.566;2023-04-03T12:58:47;2.35;;;1.70;;
10387;SDS011;5240;51.128;4.566;2023-04-03T13:01:16;2.78;;;1.48;;
10387;SDS011;5240;51.128;4.566;2023-04-03T13:03:47;2.50;;;1.60;;
10387;SDS011;5240;51.128;4.566;2023-04-03T13:06:19;2.20;;;1.65;;
10387;SDS011;5240;51.128;4.566;2023-04-03T13:08:49;2.95;;;1.55;;
10387;SDS011;5240;51.128;4.566;2023-04-03T13:11:17;5.47;;;1.88;;
10387;SDS011;5240;51.128;4.566;2023-04-03T13:13:54;2.10;;;1.50;;
10387;SDS011;5240;51.128;4.566;2023-04-03T13:16:25;2.67;;;1.70;;
10387;SDS011;5240;51.128;4.566;2023-04-03T13:18:53;2.92;;;1.70;;
10387;SDS011;5240;51.128;4.566;2023-04-03T13:21:21;4.30;;;1.88;;
10387;SDS011;5240;51.128;4.566;2023-04-03T13:23:51;3.05;;;1.55;;
10387;SDS011;5240;51.128;4.566;2023-04-03T13:26:25;2.65;;;1.88;;
10387;SDS011;5240;51.128;4.566;2023-04-03T13:28:54;2.80;;;1.95;;
10387;SDS011;5240;51.128;4.566;2023-04-03T13:31:26;3.03;;;1.73;;
10387;SDS011;5240;51.128;4.566;2023-04-03T13:33:57;3.53;;;1.92;;
10387;SDS011;5240;51.128;4.566;2023-04-03T13:36:29;2.53;;;1.73;;
10387;SDS011;5240;51.128;4.566;2023-04-03T13:39:03;3.15;;;1.77;;
10387;SDS011;5240;51.128;4.566;2023-04-03T13:41:34;4.85;;;1.98;;
10387;SDS011;5240;51.128;4.566;2023-04-03T13:44:17;2.30;;;1.75;;
10387;SDS011;5240;51.128;4.566;2023-04-03T13:46:52;3.30;;;1.90;;
10387;SDS011;5240;51.128;4.566;2023-04-03T13:49:21;1.95;;;1.75;;
10387;SDS011;5240;51.128;4.566;2023-04-03T13:51:54;3.42;;;2.10;;
10387;SDS011;5240;51.128;4.566;2023-04-03T13:54:22;2.95;;;1.50;;
10387;SDS011;5240;51.128;4.566;2023-04-03T13:56:54;1.80;;;1.48;;
10387;SDS011;5240;51.128;4.566;2023-04-03T13:59:23;7.95;;;2.05;;
10387;SDS011;5240;51.128;4.566;2023-04-03T14:01:54;2.45;;;1.83;;
10387;SDS011;5240;51.128;4.566;2023-04-03T14:04:33;3.15;;;1.80;;
10387;SDS011;5240;51.128;4.566;2023-04-03T14:07:12;2.03;;;1.52;;
10387;SDS011;5240;51.128;4.566;2023-04-03T14:09:41;1.60;;;1.45;;
10387;SDS011;5240;51.128;4.566;2023-04-03T14:12:12;2.38;;;1.70;;
10387;SDS011;5240;51.128;4.566;2023-04-03T14:14:43;2.72;;;1.63;;
10387;SDS011;5240;51.128;4.566;2023-04-03T14:17:14;1.60;;;1.40;;
10387;SDS011;5240;51.128;4.566;2023-04-03T14:19:43;3.63;;;1.60;;
10387;SDS011;5240;51.128;4.566;2023-04-03T14:22:15;5.32;;;1.40;;
10387;SDS011;5240;51.128;4.566;2023-04-03T14:24:43;1.95;;;1.48;;
10387;SDS011;5240;51.128;4.566;2023-04-03T14:27:15;3.70;;;1.60;;
10387;SDS011;5240;51.128;4.566;2023-04-03T14:29:44;2.70;;;1.67;;
10387;SDS011;5240;51.128;4.566;2023-04-03T14:32:12;3.08;;;1.83;;
10387;SDS011;5240;51.128;4.566;2023-04-03T14:34:41;5.82;;;1.50;;
10387;SDS011;5240;51.128;4.566;2023-04-03T14:37:09;4.15;;;1.50;;
10387;SDS011;5240;51.128;4.566;2023-04-03T14:39:38;3.63;;;1.70;;
10387;SDS011;5240;51.128;4.566;2023-04-03T14:42:09;3.00;;;2.03;;
10387;SDS011;5240;51.128;4.566;2023-04-03T14:44:41;3.15;;;1.85;;
10387;SDS011;5240;51.128;4.566;2023-04-03T14:47:10;2.85;;;1.40;;
10387;SDS011;5240;51.128;4.566;2023-04-03T14:49:38;3.22;;;1.50;;
10387;SDS011;5240;51.128;4.566;2023-04-03T14:52:06;2.40;;;1.40;;
10387;SDS011;5240;51.128;4.566;2023-04-03T14:54:42;5.68;;;1.90;;
10387;SDS011;5240;51.128;4.566;2023-04-03T14:57:09;3.95;;;1.50;;
10387;SDS011;5240;51.128;4.566;2023-04-03T14:59:39;1.60;;;1.42;;
10387;SDS011;5240;51.128;4.566;2023-04-03T15:02:11;3.05;;;1.38;;
10387;SDS011;5240;51.128;4.566;2023-04-03T15:04:52;3.47;;;1.70;;
10387;SDS011;5240;51.128;4.566;2023-04-03T15:07:19;2.45;;;1.42;;
10387;SDS011;5240;51.128;4.566;2023-04-03T15:09:47;5.05;;;2.15;;
10387;SDS011;5240;51.128;4.566;2023-04-03T15:12:14;2.88;;;1.90;;
10387;SDS011;5240;51.128;4.566;2023-04-03T15:14:43;5.13;;;1.77;;
10387;SDS011;5240;51.128;4.566;2023-04-03T15:17:11;3.97;;;1.80;;
10387;SDS011;5240;51.128;4.566;2023-04-03T15:19:42;3.28;;;1.70;;
10387;SDS011;5240;51.128;4.566;2023-04-03T15:22:10;2.47;;;1.42;;
10387;SDS011;5240;51.128;4.566;2023-04-03T15:24:40;2.28;;;1.60;;
10387;SDS011;5240;51.128;4.566;2023-04-03T15:27:08;1.95;;;1.42;;
10387;SDS011;5240;51.128;4.566;2023-04-03T15:29:35;4.68;;;1.55;;
10387;SDS011;5240;51.128;4.566;2023-04-03T15:32:04;3.33;;;1.58;;
10387;SDS011;5240;51.128;4.566;2023-04-03T15:34:31;3.13;;;1.58;;
10387;SDS011;5240;51.128;4.566;2023-04-03T15:36:58;2.97;;;1.58;;
10387;SDS011;5240;51.128;4.566;2023-04-03T15:39:26;2.88;;;1.92;;